sensor_id;sensor_type;location;lat;lon;timestamp;P1;durP1;ratioP1;P2;durP2;ratioP2
20609;SDS011;10463;52.378;9.688;2022-12-19T00:00:39;2.80;;;1.73;;
20609;SDS011;10463;52.378;9.688;2022-12-19T00:03:24;2.60;;;1.93;;
20609;SDS011;10463;52.378;9.688;2022-12-19T00:06:08;2.30;;;1.50;;
20609;SDS011;10463;52.378;9.688;2022-12-19T00:08:54;1.97;;;1.57;;
20609;SDS011;10463;52.378;9.688;2022-12-19T00:11:39;2.90;;;1.93;;
20609;SDS011;10463;52.378;9.688;2022-12-19T00:14:25;2.73;;;2.10;;
20609;SDS011;10463;52.378;9.688;2022-12-19T00:17:10;2.37;;;1.70;;
20609;SDS011;10463;52.378;9.688;2022-12-19T00:19:55;3.03;;;2.37;;
20609;SDS011;10463;52.378;9.688;2022-12-19T00:22:40;1.80;;;1.50;;
20609;SDS011;10463;52.378;9.688;2022-12-19T00:25:26;2.83;;;1.97;;
20609;SDS011;10463;52.378;9.688;2022-12-19T00:28:10;3.57;;;2.40;;
20609;SDS011;10463;52.378;9.688;2022-12-19T00:30:58;2.87;;;1.90;;
20609;SDS011;10463;52.378;9.688;2022-12-19T00:33:43;2.70;;;1.90;;
20609;SDS011;10463;52.378;9.688;2022-12-19T00:36:30;2.50;;;1.70;;
20609;SDS011;10463;52.378;9.688;2022-12-19T00:39:17;1.93;;;1.50;;
20609;SDS011;10463;52.378;9.688;2022-12-19T00:42:03;2.40;;;1.87;;
20609;SDS011;10463;52.378;9.688;2022-12-19T00:44:48;2.33;;;1.93;;
20609;SDS011;10463;52.378;9.688;2022-12-19T00:47:34;3.23;;;2.03;;
20609;SDS011;10463;52.378;9.688;2022-12-19T00:50:18;3.33;;;2.30;;
20609;SDS011;10463;52.378;9.688;2022-12-19T00:53:03;3.37;;;1.93;;
20609;SDS011;10463;52.378;9.688;2022-12-19T00:55:47;2.63;;;1.90;;
20609;SDS011;10463;52.378;9.688;2022-12-19T00:58:32;2.63;;;1.87;;
20609;SDS011;10463;52.378;9.688;2022-12-19T01:01:18;2.97;;;2.20;;
20609;SDS011;10463;52.378;9.688;2022-12-19T01:04:07;2.90;;;2.10;;
20609;SDS011;10463;52.378;9.688;2022-12-19T01:07:00;2.73;;;2.13;;
20609;SDS011;10463;52.378;9.688;2022-12-19T01:09:45;3.27;;;2.20;;
20609;SDS011;10463;52.378;9.688;2022-12-19T01:12:29;2.50;;;1.87;;
20609;SDS011;10463;52.378;9.688;2022-12-19T01:15:29;3.10;;;2.00;;
20609;SDS011;10463;52.378;9.688;2022-12-19T01:18:14;3.80;;;2.30;;
20609;SDS011;10463;52.378;9.688;2022-12-19T01:21:01;3.40;;;2.20;;
20609;SDS011;10463;52.378;9.688;2022-12-19T01:23:47;3.23;;;2.00;;
20609;SDS011;10463;52.378;9.688;2022-12-19T01:26:31;2.87;;;2.57;;
20609;SDS011;10463;52.378;9.688;2022-12-19T01:29:16;2.20;;;1.70;;
20609;SDS011;10463;52.378;9.688;2022-12-19T01:32:01;2.17;;;1.63;;
20609;SDS011;10463;52.378;9.688;2022-12-19T01:34:49;2.20;;;1.70;;
20609;SDS011;10463;52.378;9.688;2022-12-19T01:37:35;2.53;;;2.00;;
20609;SDS011;10463;52.378;9.688;2022-12-19T01:40:20;2.60;;;2.23;;
20609;SDS011;10463;52.378;9.688;2022-12-19T01:43:05;2.60;;;1.77;;
20609;SDS011;10463;52.378;9.688;2022-12-19T01:45:58;3.00;;;2.40;;
20609;SDS011;10463;52.378;9.688;2022-12-19T01:48:45;2.77;;;1.90;;
20609;SDS011;10463;52.378;9.688;2022-12-19T01:51:33;2.60;;;1.90;;
20609;SDS011;10463;52.378;9.688;2022-12-19T01:54:25;3.10;;;2.17;;
20609;SDS011;10463;52.378;9.688;2022-12-19T01:57:13;2.90;;;2.20;;
20609;SDS011;10463;52.378;9.688;2022-12-19T02:00:01;2.53;;;1.87;;
20609;SDS011;10463;52.378;9.688;2022-12-19T02:02:58;2.93;;;2.00;;
20609;SDS011;10463;52.378;9.688;2022-12-19T02:05:47;3.07;;;2.23;;
20609;SDS011;10463;52.378;9.688;2022-12-19T02:08:33;2.50;;;2.03;;
20609;SDS011;10463;52.378;9.688;2022-12-19T02:11:20;2.20;;;1.80;;
20609;SDS011;10463;52.378;9.688;2022-12-19T02:14:05;3.90;;;2.30;;
20609;SDS011;10463;52.378;9.688;2022-12-19T02:16:53;2.93;;;2.17;;
20609;SDS011;10463;52.378;9.688;2022-12-19T02:20:04;2.70;;;1.97;;
20609;SDS011;10463;52.378;9.688;2022-12-19T02:23:55;2.90;;;2.10;;
20609;SDS011;10463;52.378;9.688;2022-12-19T02:27:24;3.17;;;1.80;;
20609;SDS011;10463;52.378;9.688;2022-12-19T02:30:44;2.50;;;1.77;;
20609;SDS011;10463;52.378;9.688;2022-12-19T02:33:44;2.93;;;2.10;;
20609;SDS011;10463;52.378;9.688;2022-12-19T02:36:37;3.30;;;2.20;;
20609;SDS011;10463;52.378;9.688;2022-12-19T02:39:25;2.50;;;1.90;;
20609;SDS011;10463;52.378;9.688;2022-12-19T02:42:16;4.80;;;2.13;;
20609;SDS011;10463;52.378;9.688;2022-12-19T02:45:07;2.07;;;1.47;;
20609;SDS011;10463;52.378;9.688;2022-12-19T02:47:59;3.10;;;2.00;;
20609;SDS011;10463;52.378;9.688;2022-12-19T02:50:46;2.83;;;2.17;;
20609;SDS011;10463;52.378;9.688;2022-12-19T02:53:31;2.10;;;1.50;;
20609;SDS011;10463;52.378;9.688;2022-12-19T02:56:38;2.50;;;2.00;;
20609;SDS011;10463;52.378;9.688;2022-12-19T02:59:36;2.63;;;1.63;;
20609;SDS011;10463;52.378;9.688;2022-12-19T03:02:36;2.93;;;1.87;;
20609;SDS011;10463;52.378;9.688;2022-12-19T03:05:34;2.07;;;1.50;;
20609;SDS011;10463;52.378;9.688;2022-12-19T03:08:32;3.00;;;2.00;;
20609;SDS011;10463;52.378;9.688;2022-12-19T03:11:27;2.40;;;1.80;;
20609;SDS011;10463;52.378;9.688;2022-12-19T03:14:17;1.90;;;1.40;;
20609;SDS011;10463;52.378;9.688;2022-12-19T03:17:04;2.50;;;1.80;;
20609;SDS011;10463;52.378;9.688;2022-12-19T03:19:50;2.50;;;2.00;;
20609;SDS011;10463;52.378;9.688;2022-12-19T03:22:36;3.90;;;2.40;;
20609;SDS011;10463;52.378;9.688;2022-12-19T03:25:21;2.53;;;2.10;;
20609;SDS011;10463;52.378;9.688;2022-12-19T03:28:09;2.20;;;1.50;;
20609;SDS011;10463;52.378;9.688;2022-12-19T03:30:58;2.03;;;1.83;;
20609;SDS011;10463;52.378;9.688;2022-12-19T03:33:44;2.70;;;1.90;;
20609;SDS011;10463;52.378;9.688;2022-12-19T03:36:35;2.90;;;1.70;;
20609;SDS011;10463;52.378;9.688;2022-12-19T03:39:27;3.10;;;2.07;;
20609;SDS011;10463;52.378;9.688;2022-12-19T03:42:14;2.80;;;2.10;;
20609;SDS011;10463;52.378;9.688;2022-12-19T03:45:22;3.20;;;2.17;;
20609;SDS011;10463;52.378;9.688;2022-12-19T03:48:14;2.77;;;2.30;;
20609;SDS011;10463;52.378;9.688;2022-12-19T03:51:06;2.30;;;1.83;;
20609;SDS011;10463;52.378;9.688;2022-12-19T03:54:01;1.80;;;1.50;;
20609;SDS011;10463;52.378;9.688;2022-12-19T03:56:52;2.80;;;1.97;;
20609;SDS011;10463;52.378;9.688;2022-12-19T03:59:44;2.80;;;1.80;;
20609;SDS011;10463;52.378;9.688;2022-12-19T04:02:36;1.80;;;1.43;;
20609;SDS011;10463;52.378;9.688;2022-12-19T04:05:24;2.30;;;2.00;;
20609;SDS011;10463;52.378;9.688;2022-12-19T04:08:10;2.30;;;1.60;;
20609;SDS011;10463;52.378;9.688;2022-12-19T04:10:58;2.20;;;1.57;;
20609;SDS011;10463;52.378;9.688;2022-12-19T04:13:48;2.47;;;1.80;;
20609;SDS011;10463;52.378;9.688;2022-12-19T04:16:39;2.80;;;1.83;;
20609;SDS011;10463;52.378;9.688;2022-12-19T04:19:29;2.40;;;1.60;;
20609;SDS011;10463;52.378;9.688;2022-12-19T04:22:21;3.53;;;2.13;;
20609;SDS011;10463;52.378;9.688;2022-12-19T04:25:10;2.03;;;1.70;;
20609;SDS011;10463;52.378;9.688;2022-12-19T04:28:03;2.10;;;1.43;;
20609;SDS011;10463;52.378;9.688;2022-12-19T04:30:53;2.67;;;1.80;;
20609;SDS011;10463;52.378;9.688;2022-12-19T04:33:38;2.77;;;2.17;;
20609;SDS011;10463;52.378;9.688;2022-12-19T04:36:23;3.60;;;2.20;;
20609;SDS011;10463;52.378;9.688;2022-12-19T04:39:09;3.00;;;1.87;;
20609;SDS011;10463;52.378;9.688;2022-12-19T04:41:54;2.43;;;1.93;;
20609;SDS011;10463;52.378;9.688;2022-12-19T04:44:38;2.10;;;1.63;;
20609;SDS011;10463;52.378;9.688;2022-12-19T04:47:24;2.10;;;1.60;;
20609;SDS011;10463;52.378;9.688;2022-12-19T04:50:09;2.53;;;1.83;;
20609;SDS011;10463;52.378;9.688;2022-12-19T04:52:54;2.23;;;1.73;;
20609;SDS011;10463;52.378;9.688;2022-12-19T04:55:38;2.73;;;1.93;;
20609;SDS011;10463;52.378;9.688;2022-12-19T04:58:24;2.10;;;1.40;;
20609;SDS011;10463;52.378;9.688;2022-12-19T05:01:08;2.40;;;1.70;;
20609;SDS011;10463;52.378;9.688;2022-12-19T05:03:54;3.17;;;2.40;;
20609;SDS011;10463;52.378;9.688;2022-12-19T05:06:39;2.80;;;2.30;;
20609;SDS011;10463;52.378;9.688;2022-12-19T05:09:23;2.73;;;1.97;;
20609;SDS011;10463;52.378;9.688;2022-12-19T05:12:08;2.63;;;2.03;;
20609;SDS011;10463;52.378;9.688;2022-12-19T05:14:53;2.20;;;1.90;;
20609;SDS011;10463;52.378;9.688;2022-12-19T05:17:37;2.30;;;1.60;;
20609;SDS011;10463;52.378;9.688;2022-12-19T05:20:23;2.97;;;1.60;;
20609;SDS011;10463;52.378;9.688;2022-12-19T05:23:08;2.70;;;2.13;;
20609;SDS011;10463;52.378;9.688;2022-12-19T05:25:55;3.37;;;2.20;;
20609;SDS011;10463;52.378;9.688;2022-12-19T05:28:40;2.40;;;1.80;;
20609;SDS011;10463;52.378;9.688;2022-12-19T05:31:25;2.80;;;2.40;;
20609;SDS011;10463;52.378;9.688;2022-12-19T05:34:10;3.13;;;2.50;;
20609;SDS011;10463;52.378;9.688;2022-12-19T05:36:56;2.70;;;2.20;;
20609;SDS011;10463;52.378;9.688;2022-12-19T05:39:42;3.70;;;2.07;;
20609;SDS011;10463;52.378;9.688;2022-12-19T05:42:27;2.70;;;1.97;;
20609;SDS011;10463;52.378;9.688;2022-12-19T05:45:11;2.40;;;2.00;;
20609;SDS011;10463;52.378;9.688;2022-12-19T05:47:56;2.23;;;1.70;;
20609;SDS011;10463;52.378;9.688;2022-12-19T05:50:40;3.00;;;2.07;;
20609;SDS011;10463;52.378;9.688;2022-12-19T05:53:31;2.50;;;2.03;;
20609;SDS011;10463;52.378;9.688;2022-12-19T05:56:19;2.67;;;1.90;;
20609;SDS011;10463;52.378;9.688;2022-12-19T05:59:05;3.27;;;2.43;;
20609;SDS011;10463;52.378;9.688;2022-12-19T06:01:50;2.70;;;2.20;;
20609;SDS011;10463;52.378;9.688;2022-12-19T06:04:36;2.57;;;1.97;;
20609;SDS011;10463;52.378;9.688;2022-12-19T06:07:20;2.63;;;1.87;;
20609;SDS011;10463;52.378;9.688;2022-12-19T06:10:07;2.60;;;1.90;;
20609;SDS011;10463;52.378;9.688;2022-12-19T06:12:52;3.00;;;2.20;;
20609;SDS011;10463;52.378;9.688;2022-12-19T06:15:37;2.70;;;2.30;;
20609;SDS011;10463;52.378;9.688;2022-12-19T06:18:21;2.57;;;2.00;;
20609;SDS011;10463;52.378;9.688;2022-12-19T06:21:07;2.57;;;1.97;;
20609;SDS011;10463;52.378;9.688;2022-12-19T06:23:54;3.13;;;2.10;;
20609;SDS011;10463;52.378;9.688;2022-12-19T06:26:40;2.40;;;1.90;;
20609;SDS011;10463;52.378;9.688;2022-12-19T06:29:25;2.77;;;2.00;;
20609;SDS011;10463;52.378;9.688;2022-12-19T06:32:10;2.63;;;1.90;;
20609;SDS011;10463;52.378;9.688;2022-12-19T06:34:55;2.10;;;1.60;;
20609;SDS011;10463;52.378;9.688;2022-12-19T06:37:39;2.87;;;2.30;;
20609;SDS011;10463;52.378;9.688;2022-12-19T06:40:24;2.60;;;1.90;;
20609;SDS011;10463;52.378;9.688;2022-12-19T06:43:29;2.90;;;2.30;;
20609;SDS011;10463;52.378;9.688;2022-12-19T06:46:14;1.90;;;1.53;;
20609;SDS011;10463;52.378;9.688;2022-12-19T06:48:58;2.97;;;2.10;;
20609;SDS011;10463;52.378;9.688;2022-12-19T06:51:44;3.30;;;2.70;;
20609;SDS011;10463;52.378;9.688;2022-12-19T06:54:29;3.60;;;2.50;;
20609;SDS011;10463;52.378;9.688;2022-12-19T06:57:14;3.07;;;2.30;;
20609;SDS011;10463;52.378;9.688;2022-12-19T07:00:00;2.77;;;2.10;;
20609;SDS011;10463;52.378;9.688;2022-12-19T07:02:46;2.30;;;1.80;;
20609;SDS011;10463;52.378;9.688;2022-12-19T07:05:33;2.50;;;2.07;;
20609;SDS011;10463;52.378;9.688;2022-12-19T07:08:18;2.40;;;1.80;;
20609;SDS011;10463;52.378;9.688;2022-12-19T07:11:03;2.50;;;1.90;;
20609;SDS011;10463;52.378;9.688;2022-12-19T07:13:48;2.40;;;1.67;;
20609;SDS011;10463;52.378;9.688;2022-12-19T07:16:34;3.13;;;2.43;;
20609;SDS011;10463;52.378;9.688;2022-12-19T07:19:19;2.00;;;1.70;;
20609;SDS011;10463;52.378;9.688;2022-12-19T07:22:05;2.43;;;2.10;;
20609;SDS011;10463;52.378;9.688;2022-12-19T07:24:50;2.40;;;1.50;;
20609;SDS011;10463;52.378;9.688;2022-12-19T07:27:34;2.80;;;1.97;;
20609;SDS011;10463;52.378;9.688;2022-12-19T07:30:19;2.17;;;1.60;;
20609;SDS011;10463;52.378;9.688;2022-12-19T07:33:06;2.20;;;1.83;;
20609;SDS011;10463;52.378;9.688;2022-12-19T07:35:51;2.23;;;1.73;;
20609;SDS011;10463;52.378;9.688;2022-12-19T07:38:36;3.23;;;1.90;;
20609;SDS011;10463;52.378;9.688;2022-12-19T07:41:20;2.20;;;1.90;;
20609;SDS011;10463;52.378;9.688;2022-12-19T07:44:05;2.30;;;1.73;;
20609;SDS011;10463;52.378;9.688;2022-12-19T07:46:51;6.73;;;5.30;;
20609;SDS011;10463;52.378;9.688;2022-12-19T07:49:37;8.13;;;7.07;;
20609;SDS011;10463;52.378;9.688;2022-12-19T07:52:21;10.17;;;8.87;;
20609;SDS011;10463;52.378;9.688;2022-12-19T07:55:06;11.70;;;9.00;;
20609;SDS011;10463;52.378;9.688;2022-12-19T07:57:52;13.13;;;8.80;;
20609;SDS011;10463;52.378;9.688;2022-12-19T08:00:37;12.53;;;10.07;;
20609;SDS011;10463;52.378;9.688;2022-12-19T08:03:21;11.00;;;9.90;;
20609;SDS011;10463;52.378;9.688;2022-12-19T08:06:08;9.50;;;8.13;;
20609;SDS011;10463;52.378;9.688;2022-12-19T08:08:53;10.20;;;9.20;;
20609;SDS011;10463;52.378;9.688;2022-12-19T08:11:37;10.60;;;8.80;;
20609;SDS011;10463;52.378;9.688;2022-12-19T08:14:22;12.50;;;8.20;;
20609;SDS011;10463;52.378;9.688;2022-12-19T08:17:07;9.67;;;8.70;;
20609;SDS011;10463;52.378;9.688;2022-12-19T08:19:52;10.50;;;9.13;;
20609;SDS011;10463;52.378;9.688;2022-12-19T08:22:38;9.00;;;7.80;;
20609;SDS011;10463;52.378;9.688;2022-12-19T08:25:23;9.17;;;7.97;;
20609;SDS011;10463;52.378;9.688;2022-12-19T08:28:07;9.30;;;8.07;;
20609;SDS011;10463;52.378;9.688;2022-12-19T08:30:52;10.50;;;8.73;;
20609;SDS011;10463;52.378;9.688;2022-12-19T08:33:36;10.57;;;8.53;;
20609;SDS011;10463;52.378;9.688;2022-12-19T08:36:22;9.23;;;8.23;;
20609;SDS011;10463;52.378;9.688;2022-12-19T08:39:10;9.70;;;8.33;;
20609;SDS011;10463;52.378;9.688;2022-12-19T08:41:54;10.00;;;8.13;;
20609;SDS011;10463;52.378;9.688;2022-12-19T08:44:39;8.00;;;7.20;;
20609;SDS011;10463;52.378;9.688;2022-12-19T08:47:23;8.67;;;7.77;;
20609;SDS011;10463;52.378;9.688;2022-12-19T08:50:08;9.50;;;8.50;;
20609;SDS011;10463;52.378;9.688;2022-12-19T08:52:53;10.27;;;7.67;;
20609;SDS011;10463;52.378;9.688;2022-12-19T08:55:39;11.50;;;8.50;;
20609;SDS011;10463;52.378;9.688;2022-12-19T08:58:24;11.00;;;7.33;;
20609;SDS011;10463;52.378;9.688;2022-12-19T09:01:12;9.90;;;8.40;;
20609;SDS011;10463;52.378;9.688;2022-12-19T09:03:58;9.40;;;7.97;;
20609;SDS011;10463;52.378;9.688;2022-12-19T09:06:43;9.10;;;7.70;;
20609;SDS011;10463;52.378;9.688;2022-12-19T09:09:28;8.13;;;7.30;;
20609;SDS011;10463;52.378;9.688;2022-12-19T09:12:14;8.73;;;7.60;;
20609;SDS011;10463;52.378;9.688;2022-12-19T09:14:59;7.53;;;6.53;;
20609;SDS011;10463;52.378;9.688;2022-12-19T09:17:44;6.80;;;6.10;;
20609;SDS011;10463;52.378;9.688;2022-12-19T09:20:28;5.90;;;5.03;;
20609;SDS011;10463;52.378;9.688;2022-12-19T09:23:13;5.23;;;4.57;;
20609;SDS011;10463;52.378;9.688;2022-12-19T09:26:01;4.30;;;3.90;;
20609;SDS011;10463;52.378;9.688;2022-12-19T09:28:48;4.80;;;3.73;;
20609;SDS011;10463;52.378;9.688;2022-12-19T09:31:34;5.83;;;4.03;;
20609;SDS011;10463;52.378;9.688;2022-12-19T09:34:19;4.10;;;3.70;;
20609;SDS011;10463;52.378;9.688;2022-12-19T09:37:04;4.30;;;3.60;;
20609;SDS011;10463;52.378;9.688;2022-12-19T09:39:49;4.57;;;3.27;;
20609;SDS011;10463;52.378;9.688;2022-12-19T09:42:53;4.10;;;3.07;;
20609;SDS011;10463;52.378;9.688;2022-12-19T09:45:49;3.73;;;3.00;;
20609;SDS011;10463;52.378;9.688;2022-12-19T09:48:40;3.97;;;3.47;;
20609;SDS011;10463;52.378;9.688;2022-12-19T09:51:31;5.50;;;3.73;;
20609;SDS011;10463;52.378;9.688;2022-12-19T09:54:21;4.77;;;3.57;;
20609;SDS011;10463;52.378;9.688;2022-12-19T09:57:12;3.73;;;3.07;;
20609;SDS011;10463;52.378;9.688;2022-12-19T10:00:03;3.47;;;2.67;;
20609;SDS011;10463;52.378;9.688;2022-12-19T10:02:58;4.33;;;3.53;;
20609;SDS011;10463;52.378;9.688;2022-12-19T10:05:48;3.60;;;2.90;;
20609;SDS011;10463;52.378;9.688;2022-12-19T10:08:37;2.83;;;2.43;;
20609;SDS011;10463;52.378;9.688;2022-12-19T10:11:39;4.33;;;2.80;;
20609;SDS011;10463;52.378;9.688;2022-12-19T10:14:40;4.43;;;3.30;;
20609;SDS011;10463;52.378;9.688;2022-12-19T10:17:51;3.27;;;2.67;;
20609;SDS011;10463;52.378;9.688;2022-12-19T10:20:51;3.50;;;2.50;;
20609;SDS011;10463;52.378;9.688;2022-12-19T10:23:51;4.03;;;3.07;;
20609;SDS011;10463;52.378;9.688;2022-12-19T10:26:48;3.57;;;2.67;;
20609;SDS011;10463;52.378;9.688;2022-12-19T10:29:58;3.30;;;2.30;;
20609;SDS011;10463;52.378;9.688;2022-12-19T10:33:00;3.83;;;2.77;;
20609;SDS011;10463;52.378;9.688;2022-12-19T10:35:53;3.00;;;2.70;;
20609;SDS011;10463;52.378;9.688;2022-12-19T10:38:46;3.80;;;2.73;;
20609;SDS011;10463;52.378;9.688;2022-12-19T10:41:38;3.37;;;2.60;;
20609;SDS011;10463;52.378;9.688;2022-12-19T10:44:27;3.03;;;2.40;;
20609;SDS011;10463;52.378;9.688;2022-12-19T10:47:15;2.87;;;2.60;;
20609;SDS011;10463;52.378;9.688;2022-12-19T10:50:02;2.73;;;2.23;;
20609;SDS011;10463;52.378;9.688;2022-12-19T10:52:50;2.80;;;2.43;;
20609;SDS011;10463;52.378;9.688;2022-12-19T10:55:40;3.00;;;2.50;;
20609;SDS011;10463;52.378;9.688;2022-12-19T10:58:31;3.47;;;2.17;;
20609;SDS011;10463;52.378;9.688;2022-12-19T11:01:20;3.07;;;2.30;;
20609;SDS011;10463;52.378;9.688;2022-12-19T11:04:23;3.40;;;2.20;;
20609;SDS011;10463;52.378;9.688;2022-12-19T11:07:19;2.33;;;2.00;;
20609;SDS011;10463;52.378;9.688;2022-12-19T11:10:32;2.63;;;2.13;;
20609;SDS011;10463;52.378;9.688;2022-12-19T11:13:21;3.00;;;2.53;;
20609;SDS011;10463;52.378;9.688;2022-12-19T11:16:08;2.97;;;2.50;;
20609;SDS011;10463;52.378;9.688;2022-12-19T11:18:53;2.70;;;2.13;;
20609;SDS011;10463;52.378;9.688;2022-12-19T11:21:38;3.27;;;2.43;;
20609;SDS011;10463;52.378;9.688;2022-12-19T11:24:26;3.20;;;2.23;;
20609;SDS011;10463;52.378;9.688;2022-12-19T11:27:29;3.33;;;2.37;;
20609;SDS011;10463;52.378;9.688;2022-12-19T11:30:21;2.30;;;1.80;;
20609;SDS011;10463;52.378;9.688;2022-12-19T11:33:11;3.67;;;2.60;;
20609;SDS011;10463;52.378;9.688;2022-12-19T11:35:58;2.57;;;2.27;;
20609;SDS011;10463;52.378;9.688;2022-12-19T11:38:46;3.23;;;2.43;;
20609;SDS011;10463;52.378;9.688;2022-12-19T11:41:40;2.90;;;2.00;;
20609;SDS011;10463;52.378;9.688;2022-12-19T11:44:34;3.73;;;2.40;;
20609;SDS011;10463;52.378;9.688;2022-12-19T11:47:29;2.90;;;2.43;;
20609;SDS011;10463;52.378;9.688;2022-12-19T11:50:23;2.50;;;1.80;;
20609;SDS011;10463;52.378;9.688;2022-12-19T11:53:13;2.90;;;2.30;;
20609;SDS011;10463;52.378;9.688;2022-12-19T11:56:04;2.10;;;1.60;;
20609;SDS011;10463;52.378;9.688;2022-12-19T11:58:56;3.27;;;2.33;;
20609;SDS011;10463;52.378;9.688;2022-12-19T12:01:57;2.90;;;2.00;;
20609;SDS011;10463;52.378;9.688;2022-12-19T12:05:03;2.83;;;2.47;;
20609;SDS011;10463;52.378;9.688;2022-12-19T12:08:40;2.80;;;2.10;;
20609;SDS011;10463;52.378;9.688;2022-12-19T12:11:37;2.70;;;1.93;;
20609;SDS011;10463;52.378;9.688;2022-12-19T12:14:31;2.73;;;2.40;;
20609;SDS011;10463;52.378;9.688;2022-12-19T12:17:46;2.63;;;2.10;;
20609;SDS011;10463;52.378;9.688;2022-12-19T12:20:42;3.40;;;2.43;;
20609;SDS011;10463;52.378;9.688;2022-12-19T12:23:38;2.50;;;2.17;;
20609;SDS011;10463;52.378;9.688;2022-12-19T12:26:35;2.67;;;1.83;;
20609;SDS011;10463;52.378;9.688;2022-12-19T12:29:25;3.03;;;2.00;;
20609;SDS011;10463;52.378;9.688;2022-12-19T12:32:27;3.33;;;2.83;;
20609;SDS011;10463;52.378;9.688;2022-12-19T12:35:28;2.40;;;1.93;;
20609;SDS011;10463;52.378;9.688;2022-12-19T12:41:50;2.30;;;1.80;;
20609;SDS011;10463;52.378;9.688;2022-12-19T12:44:50;2.60;;;2.30;;
20609;SDS011;10463;52.378;9.688;2022-12-19T12:47:37;3.13;;;2.60;;
20609;SDS011;10463;52.378;9.688;2022-12-19T12:50:24;3.77;;;2.90;;
20609;SDS011;10463;52.378;9.688;2022-12-19T12:53:09;2.90;;;2.53;;
20609;SDS011;10463;52.378;9.688;2022-12-19T12:55:59;6.33;;;2.90;;
20609;SDS011;10463;52.378;9.688;2022-12-19T12:59:05;2.60;;;2.07;;
20609;SDS011;10463;52.378;9.688;2022-12-19T13:02:13;3.00;;;2.70;;
20609;SDS011;10463;52.378;9.688;2022-12-19T13:05:00;3.37;;;2.40;;
20609;SDS011;10463;52.378;9.688;2022-12-19T13:08:28;3.37;;;2.03;;
20609;SDS011;10463;52.378;9.688;2022-12-19T13:11:35;3.83;;;2.50;;
20609;SDS011;10463;52.378;9.688;2022-12-19T13:14:43;5.13;;;2.27;;
20609;SDS011;10463;52.378;9.688;2022-12-19T13:18:01;2.87;;;2.20;;
20609;SDS011;10463;52.378;9.688;2022-12-19T13:21:11;3.20;;;2.50;;
20609;SDS011;10463;52.378;9.688;2022-12-19T13:24:12;2.43;;;1.90;;
20609;SDS011;10463;52.378;9.688;2022-12-19T13:27:11;3.70;;;2.60;;
20609;SDS011;10463;52.378;9.688;2022-12-19T13:30:32;3.37;;;2.47;;
20609;SDS011;10463;52.378;9.688;2022-12-19T13:33:18;3.10;;;2.47;;
20609;SDS011;10463;52.378;9.688;2022-12-19T13:36:03;2.60;;;2.23;;
20609;SDS011;10463;52.378;9.688;2022-12-19T13:39:26;2.43;;;2.20;;
20609;SDS011;10463;52.378;9.688;2022-12-19T13:42:14;3.00;;;2.20;;
20609;SDS011;10463;52.378;9.688;2022-12-19T13:45:22;2.73;;;1.90;;
20609;SDS011;10463;52.378;9.688;2022-12-19T13:48:12;3.50;;;2.97;;
20609;SDS011;10463;52.378;9.688;2022-12-19T13:51:06;3.70;;;2.83;;
20609;SDS011;10463;52.378;9.688;2022-12-19T13:53:52;3.37;;;2.70;;
20609;SDS011;10463;52.378;9.688;2022-12-19T13:56:37;2.73;;;2.30;;
20609;SDS011;10463;52.378;9.688;2022-12-19T13:59:24;2.80;;;2.50;;
20609;SDS011;10463;52.378;9.688;2022-12-19T14:02:14;3.00;;;2.40;;
20609;SDS011;10463;52.378;9.688;2022-12-19T14:05:01;3.73;;;2.70;;
20609;SDS011;10463;52.378;9.688;2022-12-19T14:07:48;3.10;;;2.60;;
20609;SDS011;10463;52.378;9.688;2022-12-19T14:10:37;3.67;;;2.63;;
20609;SDS011;10463;52.378;9.688;2022-12-19T14:13:25;3.40;;;2.63;;
20609;SDS011;10463;52.378;9.688;2022-12-19T14:16:29;3.47;;;3.17;;
20609;SDS011;10463;52.378;9.688;2022-12-19T14:19:21;2.63;;;2.30;;
20609;SDS011;10463;52.378;9.688;2022-12-19T14:22:10;3.07;;;2.53;;
20609;SDS011;10463;52.378;9.688;2022-12-19T14:24:58;5.00;;;2.37;;
20609;SDS011;10463;52.378;9.688;2022-12-19T14:27:47;3.03;;;2.40;;
20609;SDS011;10463;52.378;9.688;2022-12-19T14:30:36;3.00;;;2.60;;
20609;SDS011;10463;52.378;9.688;2022-12-19T14:33:28;3.33;;;2.27;;
20609;SDS011;10463;52.378;9.688;2022-12-19T14:36:23;2.83;;;2.23;;
20609;SDS011;10463;52.378;9.688;2022-12-19T14:39:14;4.20;;;2.73;;
20609;SDS011;10463;52.378;9.688;2022-12-19T14:42:03;3.57;;;2.50;;
20609;SDS011;10463;52.378;9.688;2022-12-19T14:45:31;2.90;;;1.90;;
20609;SDS011;10463;52.378;9.688;2022-12-19T14:48:31;2.83;;;2.53;;
20609;SDS011;10463;52.378;9.688;2022-12-19T14:51:25;3.33;;;2.50;;
20609;SDS011;10463;52.378;9.688;2022-12-19T14:54:17;3.37;;;2.30;;
20609;SDS011;10463;52.378;9.688;2022-12-19T14:57:04;2.63;;;2.10;;
20609;SDS011;10463;52.378;9.688;2022-12-19T14:59:58;4.43;;;3.10;;
20609;SDS011;10463;52.378;9.688;2022-12-19T15:02:43;2.20;;;1.90;;
20609;SDS011;10463;52.378;9.688;2022-12-19T15:05:27;3.70;;;3.00;;
20609;SDS011;10463;52.378;9.688;2022-12-19T15:08:15;3.60;;;2.03;;
20609;SDS011;10463;52.378;9.688;2022-12-19T15:11:24;4.00;;;2.63;;
20609;SDS011;10463;52.378;9.688;2022-12-19T15:14:39;2.77;;;2.20;;
20609;SDS011;10463;52.378;9.688;2022-12-19T15:17:25;3.07;;;2.30;;
20609;SDS011;10463;52.378;9.688;2022-12-19T15:20:11;3.17;;;2.67;;
20609;SDS011;10463;52.378;9.688;2022-12-19T15:22:56;4.73;;;2.63;;
20609;SDS011;10463;52.378;9.688;2022-12-19T15:25:42;2.50;;;1.80;;
20609;SDS011;10463;52.378;9.688;2022-12-19T15:28:33;3.47;;;2.70;;
20609;SDS011;10463;52.378;9.688;2022-12-19T15:31:31;5.63;;;2.70;;
20609;SDS011;10463;52.378;9.688;2022-12-19T15:34:22;3.55;;;2.40;;
20609;SDS011;10463;52.378;9.688;2022-12-19T15:37:09;3.90;;;2.73;;
20609;SDS011;10463;52.378;9.688;2022-12-19T15:39:54;3.40;;;2.40;;
20609;SDS011;10463;52.378;9.688;2022-12-19T15:42:39;3.63;;;2.40;;
20609;SDS011;10463;52.378;9.688;2022-12-19T15:45:25;3.53;;;3.17;;
20609;SDS011;10463;52.378;9.688;2022-12-19T15:48:14;3.97;;;2.63;;
20609;SDS011;10463;52.378;9.688;2022-12-19T15:50:59;3.10;;;2.80;;
20609;SDS011;10463;52.378;9.688;2022-12-19T15:53:44;3.97;;;2.47;;
20609;SDS011;10463;52.378;9.688;2022-12-19T15:56:30;3.17;;;2.60;;
20609;SDS011;10463;52.378;9.688;2022-12-19T15:59:24;4.20;;;2.67;;
20609;SDS011;10463;52.378;9.688;2022-12-19T16:02:16;4.27;;;2.90;;
20609;SDS011;10463;52.378;9.688;2022-12-19T16:05:06;2.30;;;2.00;;
20609;SDS011;10463;52.378;9.688;2022-12-19T16:07:52;3.83;;;2.37;;
20609;SDS011;10463;52.378;9.688;2022-12-19T16:10:36;2.97;;;2.40;;
20609;SDS011;10463;52.378;9.688;2022-12-19T16:13:23;3.93;;;2.93;;
20609;SDS011;10463;52.378;9.688;2022-12-19T16:16:10;3.50;;;2.60;;
20609;SDS011;10463;52.378;9.688;2022-12-19T16:18:55;3.07;;;2.57;;
20609;SDS011;10463;52.378;9.688;2022-12-19T16:21:41;3.37;;;2.40;;
20609;SDS011;10463;52.378;9.688;2022-12-19T16:24:25;2.60;;;2.00;;
20609;SDS011;10463;52.378;9.688;2022-12-19T16:27:16;2.53;;;2.10;;
20609;SDS011;10463;52.378;9.688;2022-12-19T16:30:16;3.60;;;2.20;;
20609;SDS011;10463;52.378;9.688;2022-12-19T16:33:02;2.87;;;2.27;;
20609;SDS011;10463;52.378;9.688;2022-12-19T16:35:48;2.90;;;2.53;;
20609;SDS011;10463;52.378;9.688;2022-12-19T16:38:35;2.80;;;2.33;;
20609;SDS011;10463;52.378;9.688;2022-12-19T16:41:22;2.83;;;2.10;;
20609;SDS011;10463;52.378;9.688;2022-12-19T16:44:13;2.93;;;1.90;;
20609;SDS011;10463;52.378;9.688;2022-12-19T16:47:00;3.17;;;2.77;;
20609;SDS011;10463;52.378;9.688;2022-12-19T16:49:44;2.20;;;2.00;;
20609;SDS011;10463;52.378;9.688;2022-12-19T16:52:29;2.93;;;2.30;;
20609;SDS011;10463;52.378;9.688;2022-12-19T16:55:15;2.63;;;2.23;;
20609;SDS011;10463;52.378;9.688;2022-12-19T16:58:00;2.53;;;1.93;;
20609;SDS011;10463;52.378;9.688;2022-12-19T17:00:45;3.23;;;2.50;;
20609;SDS011;10463;52.378;9.688;2022-12-19T17:03:31;2.63;;;1.83;;
20609;SDS011;10463;52.378;9.688;2022-12-19T17:06:20;2.80;;;2.10;;
20609;SDS011;10463;52.378;9.688;2022-12-19T17:09:06;2.87;;;1.73;;